sensor_id;sensor_type;location;lat;lon;timestamp;temperature;humidity
67799;SHT30;54596;43.216;27.904;2022-12-18T00:01:33;12.29;80.17
67799;SHT30;54596;43.216;27.904;2022-12-18T00:04:00;12.26;79.77
67799;SHT30;54596;43.216;27.904;2022-12-18T00:06:27;12.32;79.47
67799;SHT30;54596;43.216;27.904;2022-12-18T00:08:55;12.35;79.00
67799;SHT30;54596;43.216;27.904;2022-12-18T00:11:22;12.41;78.61
67799;SHT30;54596;43.216;27.904;2022-12-18T00:13:49;12.41;78.34
67799;SHT30;54596;43.216;27.904;2022-12-18T00:16:19;12.35;78.45
67799;SHT30;54596;43.216;27.904;2022-12-18T00:18:47;12.38;78.28
67799;SHT30;54596;43.216;27.904;2022-12-18T00:21:13;12.35;78.14
67799;SHT30;54596;43.216;27.904;2022-12-18T00:23:40;12.38;78.47
67799;SHT30;54596;43.216;27.904;2022-12-18T00:26:08;12.32;78.57
67799;SHT30;54596;43.216;27.904;2022-12-18T00:28:35;12.35;78.54
67799;SHT30;54596;43.216;27.904;2022-12-18T00:31:06;12.32;78.45
67799;SHT30;54596;43.216;27.904;2022-12-18T00:33:32;12.32;78.62
67799;SHT30;54596;43.216;27.904;2022-12-18T00:36:09;12.35;78.33
67799;SHT30;54596;43.216;27.904;2022-12-18T00:38:35;12.35;78.41
67799;SHT30;54596;43.216;27.904;2022-12-18T00:41:01;12.26;78.55
67799;SHT30;54596;43.216;27.904;2022-12-18T00:43:27;12.13;78.85
67799;SHT30;54596;43.216;27.904;2022-12-18T00:45:52;12.17;78.78
67799;SHT30;54596;43.216;27.904;2022-12-18T00:48:18;12.13;78.81
67799;SHT30;54596;43.216;27.904;2022-12-18T00:50:43;12.10;78.98
67799;SHT30;54596;43.216;27.904;2022-12-18T00:53:09;12.04;78.97
67799;SHT30;54596;43.216;27.904;2022-12-18T00:55:34;11.98;79.01
67799;SHT30;54596;43.216;27.904;2022-12-18T00:58:00;11.97;79.12
67799;SHT30;54596;43.216;27.904;2022-12-18T01:00:25;11.97;79.18
67799;SHT30;54596;43.216;27.904;2022-12-18T01:02:51;11.95;79.13
67799;SHT30;54596;43.216;27.904;2022-12-18T01:05:16;11.93;79.07
67799;SHT30;54596;43.216;27.904;2022-12-18T01:07:42;11.93;79.28
67799;SHT30;54596;43.216;27.904;2022-12-18T01:10:09;11.93;79.42
67799;SHT30;54596;43.216;27.904;2022-12-18T01:12:36;11.90;79.30
67799;SHT30;54596;43.216;27.904;2022-12-18T01:15:02;11.91;79.49
67799;SHT30;54596;43.216;27.904;2022-12-18T01:17:28;11.95;79.25
67799;SHT30;54596;43.216;27.904;2022-12-18T01:19:53;11.93;79.37
67799;SHT30;54596;43.216;27.904;2022-12-18T01:22:19;11.94;79.43
67799;SHT30;54596;43.216;27.904;2022-12-18T01:24:44;11.94;79.31
67799;SHT30;54596;43.216;27.904;2022-12-18T01:27:10;11.91;79.30
67799;SHT30;54596;43.216;27.904;2022-12-18T01:29:35;11.91;79.16
67799;SHT30;54596;43.216;27.904;2022-12-18T01:32:01;11.93;79.09
67799;SHT30;54596;43.216;27.904;2022-12-18T01:34:26;11.90;79.09
67799;SHT30;54596;43.216;27.904;2022-12-18T01:36:51;11.90;79.30
67799;SHT30;54596;43.216;27.904;2022-12-18T01:39:18;11.91;79.24
67799;SHT30;54596;43.216;27.904;2022-12-18T01:41:44;11.93;79.39
67799;SHT30;54596;43.216;27.904;2022-12-18T01:50:15;11.81;79.39
67799;SHT30;54596;43.216;27.904;2022-12-18T01:52:50;11.79;79.44
67799;SHT30;54596;43.216;27.904;2022-12-18T01:55:19;11.80;79.36
67799;SHT30;54596;43.216;27.904;2022-12-18T01:57:46;11.73;79.54
67799;SHT30;54596;43.216;27.904;2022-12-18T02:00:14;11.66;79.31
67799;SHT30;54596;43.216;27.904;2022-12-18T02:02:45;11.62;79.57
67799;SHT30;54596;43.216;27.904;2022-12-18T02:05:14;11.63;79.50
67799;SHT30;54596;43.216;27.904;2022-12-18T02:10:29;11.65;79.24
67799;SHT30;54596;43.216;27.904;2022-12-18T02:15:42;11.58;79.58
67799;SHT30;54596;43.216;27.904;2022-12-18T02:18:18;11.54;79.55
67799;SHT30;54596;43.216;27.904;2022-12-18T02:20:48;11.54;79.62
67799;SHT30;54596;43.216;27.904;2022-12-18T02:26:27;11.54;79.45
67799;SHT30;54596;43.216;27.904;2022-12-18T02:29:56;11.49;79.58
67799;SHT30;54596;43.216;27.904;2022-12-18T02:32:05;11.45;79.56
67799;SHT30;54596;43.216;27.904;2022-12-18T02:34:37;11.42;79.64
67799;SHT30;54596;43.216;27.904;2022-12-18T02:37:06;11.42;79.74
67799;SHT30;54596;43.216;27.904;2022-12-18T02:39:34;11.40;79.80
67799;SHT30;54596;43.216;27.904;2022-12-18T02:42:01;11.39;79.76
67799;SHT30;54596;43.216;27.904;2022-12-18T02:44:33;11.45;79.82
67799;SHT30;54596;43.216;27.904;2022-12-18T02:46:59;11.42;79.69
67799;SHT30;54596;43.216;27.904;2022-12-18T02:49:32;11.36;79.82
67799;SHT30;54596;43.216;27.904;2022-12-18T02:54:41;11.32;80.06
67799;SHT30;54596;43.216;27.904;2022-12-18T02:57:20;11.31;80.26
67799;SHT30;54596;43.216;27.904;2022-12-18T03:00:03;11.25;80.23
67799;SHT30;54596;43.216;27.904;2022-12-18T03:05:14;11.20;80.22
67799;SHT30;54596;43.216;27.904;2022-12-18T03:07:51;11.20;80.21
67799;SHT30;54596;43.216;27.904;2022-12-18T03:10:23;11.21;80.04
67799;SHT30;54596;43.216;27.904;2022-12-18T03:12:55;11.25;79.99
67799;SHT30;54596;43.216;27.904;2022-12-18T03:15:48;11.17;80.07
67799;SHT30;54596;43.216;27.904;2022-12-18T03:18:21;11.18;80.05
67799;SHT30;54596;43.216;27.904;2022-12-18T03:20:49;11.18;80.34
67799;SHT30;54596;43.216;27.904;2022-12-18T03:23:18;11.17;80.51
67799;SHT30;54596;43.216;27.904;2022-12-18T03:25:44;11.12;80.75
67799;SHT30;54596;43.216;27.904;2022-12-18T03:28:19;11.11;80.68
67799;SHT30;54596;43.216;27.904;2022-12-18T03:30:47;11.10;80.52
67799;SHT30;54596;43.216;27.904;2022-12-18T03:33:27;11.11;80.58
67799;SHT30;54596;43.216;27.904;2022-12-18T03:35:54;11.14;80.44
67799;SHT30;54596;43.216;27.904;2022-12-18T03:38:20;11.12;80.42
67799;SHT30;54596;43.216;27.904;2022-12-18T03:41:24;11.11;80.39
67799;SHT30;54596;43.216;27.904;2022-12-18T03:43:52;11.12;80.69
67799;SHT30;54596;43.216;27.904;2022-12-18T03:46:29;11.18;80.29
67799;SHT30;54596;43.216;27.904;2022-12-18T03:49:23;11.17;80.25
67799;SHT30;54596;43.216;27.904;2022-12-18T03:52:09;11.11;80.07
67799;SHT30;54596;43.216;27.904;2022-12-18T03:54:36;11.06;79.95
67799;SHT30;54596;43.216;27.904;2022-12-18T03:57:10;11.07;79.91
67799;SHT30;54596;43.216;27.904;2022-12-18T03:59:38;11.14;79.43
67799;SHT30;54596;43.216;27.904;2022-12-18T04:02:06;11.12;79.60
67799;SHT30;54596;43.216;27.904;2022-12-18T04:04:34;11.15;79.45
67799;SHT30;54596;43.216;27.904;2022-12-18T04:07:00;11.12;79.67
67799;SHT30;54596;43.216;27.904;2022-12-18T04:09:27;11.15;79.57
67799;SHT30;54596;43.216;27.904;2022-12-18T04:11:53;11.12;79.37
67799;SHT30;54596;43.216;27.904;2022-12-18T04:14:18;11.12;77.67
67799;SHT30;54596;43.216;27.904;2022-12-18T04:16:44;11.11;77.02
67799;SHT30;54596;43.216;27.904;2022-12-18T04:19:09;11.08;76.60
67799;SHT30;54596;43.216;27.904;2022-12-18T04:21:35;11.03;76.14
67799;SHT30;54596;43.216;27.904;2022-12-18T04:24:00;11.04;76.30
67799;SHT30;54596;43.216;27.904;2022-12-18T04:26:26;11.01;76.27
67799;SHT30;54596;43.216;27.904;2022-12-18T04:28:51;10.97;76.11
67799;SHT30;54596;43.216;27.904;2022-12-18T04:31:17;10.97;76.18
67799;SHT30;54596;43.216;27.904;2022-12-18T04:33:42;10.94;76.21
67799;SHT30;54596;43.216;27.904;2022-12-18T04:36:08;10.90;75.98
67799;SHT30;54596;43.216;27.904;2022-12-18T04:38:33;10.80;76.17
67799;SHT30;54596;43.216;27.904;2022-12-18T04:40:59;10.84;75.84
67799;SHT30;54596;43.216;27.904;2022-12-18T04:43:24;10.76;75.86
67799;SHT30;54596;43.216;27.904;2022-12-18T04:45:50;10.73;75.66
67799;SHT30;54596;43.216;27.904;2022-12-18T04:48:15;10.70;75.53
67799;SHT30;54596;43.216;27.904;2022-12-18T04:50:40;10.65;75.16
67799;SHT30;54596;43.216;27.904;2022-12-18T04:53:06;10.59;75.14
67799;SHT30;54596;43.216;27.904;2022-12-18T04:55:32;10.50;74.95
67799;SHT30;54596;43.216;27.904;2022-12-18T04:57:57;10.45;74.68
67799;SHT30;54596;43.216;27.904;2022-12-18T05:00:22;10.45;74.63
67799;SHT30;54596;43.216;27.904;2022-12-18T05:02:48;10.39;74.85
67799;SHT30;54596;43.216;27.904;2022-12-18T05:05:14;10.37;74.43
67799;SHT30;54596;43.216;27.904;2022-12-18T05:07:39;10.38;74.52
67799;SHT30;54596;43.216;27.904;2022-12-18T05:10:05;10.31;74.37
67799;SHT30;54596;43.216;27.904;2022-12-18T05:12:31;10.31;74.43
67799;SHT30;54596;43.216;27.904;2022-12-18T05:14:57;10.37;74.65
67799;SHT30;54596;43.216;27.904;2022-12-18T05:17:22;10.34;74.91
67799;SHT30;54596;43.216;27.904;2022-12-18T05:19:47;10.27;75.03
67799;SHT30;54596;43.216;27.904;2022-12-18T05:22:13;10.17;75.31
67799;SHT30;54596;43.216;27.904;2022-12-18T05:24:38;10.13;75.73
67799;SHT30;54596;43.216;27.904;2022-12-18T05:27:04;10.10;75.15
67799;SHT30;54596;43.216;27.904;2022-12-18T05:29:29;10.07;74.93
67799;SHT30;54596;43.216;27.904;2022-12-18T05:31:55;10.03;74.99
67799;SHT30;54596;43.216;27.904;2022-12-18T05:34:20;9.94;74.92
67799;SHT30;54596;43.216;27.904;2022-12-18T05:36:46;9.87;75.10
67799;SHT30;54596;43.216;27.904;2022-12-18T05:39:11;9.79;75.10
67799;SHT30;54596;43.216;27.904;2022-12-18T05:41:37;9.80;75.23
67799;SHT30;54596;43.216;27.904;2022-12-18T05:44:02;9.82;75.20
67799;SHT30;54596;43.216;27.904;2022-12-18T05:46:28;9.75;75.36
67799;SHT30;54596;43.216;27.904;2022-12-18T05:48:54;9.76;75.06
67799;SHT30;54596;43.216;27.904;2022-12-18T05:51:21;9.75;74.87
67799;SHT30;54596;43.216;27.904;2022-12-18T05:53:47;9.68;74.70
67799;SHT30;54596;43.216;27.904;2022-12-18T05:56:16;9.58;74.59
67799;SHT30;54596;43.216;27.904;2022-12-18T05:58:42;9.55;74.47
67799;SHT30;54596;43.216;27.904;2022-12-18T06:01:14;9.52;74.43
67799;SHT30;54596;43.216;27.904;2022-12-18T06:03:40;9.53;73.84
67799;SHT30;54596;43.216;27.904;2022-12-18T06:08:38;9.44;73.65
67799;SHT30;54596;43.216;27.904;2022-12-18T06:11:04;9.45;74.30
67799;SHT30;54596;43.216;27.904;2022-12-18T06:13:29;9.44;76.03
67799;SHT30;54596;43.216;27.904;2022-12-18T06:15:55;9.45;75.78
67799;SHT30;54596;43.216;27.904;2022-12-18T06:18:20;9.49;75.62
67799;SHT30;54596;43.216;27.904;2022-12-18T06:20:54;9.41;75.69
67799;SHT30;54596;43.216;27.904;2022-12-18T06:23:20;9.44;75.28
67799;SHT30;54596;43.216;27.904;2022-12-18T06:25:45;9.45;74.82
67799;SHT30;54596;43.216;27.904;2022-12-18T06:28:10;9.38;74.46
67799;SHT30;54596;43.216;27.904;2022-12-18T06:30:36;9.36;74.76
67799;SHT30;54596;43.216;27.904;2022-12-18T06:33:01;9.42;74.81
67799;SHT30;54596;43.216;27.904;2022-12-18T06:35:27;9.39;74.38
67799;SHT30;54596;43.216;27.904;2022-12-18T06:37:53;9.44;75.13
67799;SHT30;54596;43.216;27.904;2022-12-18T06:40:18;9.46;74.49
67799;SHT30;54596;43.216;27.904;2022-12-18T06:42:44;9.39;74.49
67799;SHT30;54596;43.216;27.904;2022-12-18T06:45:09;9.42;75.08
67799;SHT30;54596;43.216;27.904;2022-12-18T06:47:36;9.39;74.87
67799;SHT30;54596;43.216;27.904;2022-12-18T06:50:02;9.34;75.01
67799;SHT30;54596;43.216;27.904;2022-12-18T06:52:27;9.39;75.17
67799;SHT30;54596;43.216;27.904;2022-12-18T06:54:53;9.28;75.41
67799;SHT30;54596;43.216;27.904;2022-12-18T06:57:18;9.30;77.72
67799;SHT30;54596;43.216;27.904;2022-12-18T06:59:43;9.32;77.05
67799;SHT30;54596;43.216;27.904;2022-12-18T07:02:12;9.24;77.16
67799;SHT30;54596;43.216;27.904;2022-12-18T07:04:38;9.23;76.88
67799;SHT30;54596;43.216;27.904;2022-12-18T07:07:03;9.20;75.75
67799;SHT30;54596;43.216;27.904;2022-12-18T07:09:29;9.08;75.62
67799;SHT30;54596;43.216;27.904;2022-12-18T07:11:54;9.11;75.72
67799;SHT30;54596;43.216;27.904;2022-12-18T07:14:20;9.08;75.39
67799;SHT30;54596;43.216;27.904;2022-12-18T07:16:46;9.10;75.24
67799;SHT30;54596;43.216;27.904;2022-12-18T07:19:11;9.16;75.37
67799;SHT30;54596;43.216;27.904;2022-12-18T07:21:37;9.11;75.16
67799;SHT30;54596;43.216;27.904;2022-12-18T07:24:03;8.99;75.39
67799;SHT30;54596;43.216;27.904;2022-12-18T07:26:28;8.99;75.33
67799;SHT30;54596;43.216;27.904;2022-12-18T07:28:57;9.04;75.31
67799;SHT30;54596;43.216;27.904;2022-12-18T07:31:24;8.96;75.39
67799;SHT30;54596;43.216;27.904;2022-12-18T07:33:50;8.90;75.58
67799;SHT30;54596;43.216;27.904;2022-12-18T07:36:16;8.80;75.83
67799;SHT30;54596;43.216;27.904;2022-12-18T07:38:42;8.80;76.16
67799;SHT30;54596;43.216;27.904;2022-12-18T07:41:12;8.73;76.16
67799;SHT30;54596;43.216;27.904;2022-12-18T07:43:39;8.76;76.27
67799;SHT30;54596;43.216;27.904;2022-12-18T07:46:05;8.77;76.28
67799;SHT30;54596;43.216;27.904;2022-12-18T07:48:31;8.84;76.33
67799;SHT30;54596;43.216;27.904;2022-12-18T07:51:03;8.92;75.99
67799;SHT30;54596;43.216;27.904;2022-12-18T07:53:29;8.99;75.98
67799;SHT30;54596;43.216;27.904;2022-12-18T07:55:59;9.06;75.71
67799;SHT30;54596;43.216;27.904;2022-12-18T07:58:25;9.00;75.50
67799;SHT30;54596;43.216;27.904;2022-12-18T08:00:51;9.01;75.72
67799;SHT30;54596;43.216;27.904;2022-12-18T08:03:17;9.10;75.56
67799;SHT30;54596;43.216;27.904;2022-12-18T08:05:43;9.07;75.41
67799;SHT30;54596;43.216;27.904;2022-12-18T08:08:09;9.04;75.68
67799;SHT30;54596;43.216;27.904;2022-12-18T08:10:34;9.10;75.42
67799;SHT30;54596;43.216;27.904;2022-12-18T08:12:59;9.07;75.54
67799;SHT30;54596;43.216;27.904;2022-12-18T08:15:25;9.11;75.49
67799;SHT30;54596;43.216;27.904;2022-12-18T08:17:50;9.11;75.67
67799;SHT30;54596;43.216;27.904;2022-12-18T08:20:16;8.99;75.86
67799;SHT30;54596;43.216;27.904;2022-12-18T08:22:43;9.07;76.80
67799;SHT30;54596;43.216;27.904;2022-12-18T08:25:09;9.14;75.54
67799;SHT30;54596;43.216;27.904;2022-12-18T08:27:35;9.23;75.36
67799;SHT30;54596;43.216;27.904;2022-12-18T08:30:01;9.30;75.46
67799;SHT30;54596;43.216;27.904;2022-12-18T08:32:27;9.17;74.91
67799;SHT30;54596;43.216;27.904;2022-12-18T08:34:53;9.18;75.05
67799;SHT30;54596;43.216;27.904;2022-12-18T08:37:18;9.24;75.44
67799;SHT30;54596;43.216;27.904;2022-12-18T08:39:44;9.27;75.36
67799;SHT30;54596;43.216;27.904;2022-12-18T08:42:10;9.25;75.01
67799;SHT30;54596;43.216;27.904;2022-12-18T08:45:10;9.14;75.40
67799;SHT30;54596;43.216;27.904;2022-12-18T08:47:36;9.21;75.25
67799;SHT30;54596;43.216;27.904;2022-12-18T08:50:02;9.18;75.10
67799;SHT30;54596;43.216;27.904;2022-12-18T08:52:27;9.25;75.32
67799;SHT30;54596;43.216;27.904;2022-12-18T08:54:53;9.27;75.39
67799;SHT30;54596;43.216;27.904;2022-12-18T08:57:18;9.25;75.52
67799;SHT30;54596;43.216;27.904;2022-12-18T08:59:44;9.13;75.56
67799;SHT30;54596;43.216;27.904;2022-12-18T09:02:10;9.17;75.69
67799;SHT30;54596;43.216;27.904;2022-12-18T09:04:36;9.21;75.58
67799;SHT30;54596;43.216;27.904;2022-12-18T09:07:01;9.18;77.04
67799;SHT30;54596;43.216;27.904;2022-12-18T09:09:27;9.16;76.97
67799;SHT30;54596;43.216;27.904;2022-12-18T09:11:52;9.13;76.79
67799;SHT30;54596;43.216;27.904;2022-12-18T09:14:18;9.13;76.47
67799;SHT30;54596;43.216;27.904;2022-12-18T09:16:43;9.03;76.08
67799;SHT30;54596;43.216;27.904;2022-12-18T09:19:12;9.16;76.05
67799;SHT30;54596;43.216;27.904;2022-12-18T09:21:38;9.14;76.21
67799;SHT30;54596;43.216;27.904;2022-12-18T09:24:08;9.14;75.95
67799;SHT30;54596;43.216;27.904;2022-12-18T09:26:36;9.23;75.92
67799;SHT30;54596;43.216;27.904;2022-12-18T09:29:02;9.20;75.77
67799;SHT30;54596;43.216;27.904;2022-12-18T09:31:28;9.00;76.32
67799;SHT30;54596;43.216;27.904;2022-12-18T09:33:55;9.07;76.28
67799;SHT30;54596;43.216;27.904;2022-12-18T09:36:21;9.14;76.49
67799;SHT30;54596;43.216;27.904;2022-12-18T09:38:47;9.17;76.42
67799;SHT30;54596;43.216;27.904;2022-12-18T09:41:39;9.11;76.72
67799;SHT30;54596;43.216;27.904;2022-12-18T09:44:32;9.11;76.73
67799;SHT30;54596;43.216;27.904;2022-12-18T09:49:48;9.10;76.75
67799;SHT30;54596;43.216;27.904;2022-12-18T09:55:05;9.11;76.46
67799;SHT30;54596;43.216;27.904;2022-12-18T09:57:33;9.10;76.16
67799;SHT30;54596;43.216;27.904;2022-12-18T10:00:22;9.21;76.40
67799;SHT30;54596;43.216;27.904;2022-12-18T10:02:49;9.23;76.17
67799;SHT30;54596;43.216;27.904;2022-12-18T10:05:20;9.36;76.23
67799;SHT30;54596;43.216;27.904;2022-12-18T10:10:53;9.38;75.88
67799;SHT30;54596;43.216;27.904;2022-12-18T10:16:12;9.21;76.04
67799;SHT30;54596;43.216;27.904;2022-12-18T10:21:45;9.28;76.09
67799;SHT30;54596;43.216;27.904;2022-12-18T10:24:40;9.31;75.94
67799;SHT30;54596;43.216;27.904;2022-12-18T10:27:24;9.39;75.35
67799;SHT30;54596;43.216;27.904;2022-12-18T10:29:50;9.32;75.68
67799;SHT30;54596;43.216;27.904;2022-12-18T10:32:19;9.35;75.45
67799;SHT30;54596;43.216;27.904;2022-12-18T10:34:46;9.41;75.15
67799;SHT30;54596;43.216;27.904;2022-12-18T10:37:17;9.41;75.33
67799;SHT30;54596;43.216;27.904;2022-12-18T10:39:43;9.44;75.43
67799;SHT30;54596;43.216;27.904;2022-12-18T10:42:13;9.51;75.28
67799;SHT30;54596;43.216;27.904;2022-12-18T10:44:41;9.56;75.31
67799;SHT30;54596;43.216;27.904;2022-12-18T10:47:12;9.55;75.17
67799;SHT30;54596;43.216;27.904;2022-12-18T10:49:46;9.55;74.89
67799;SHT30;54596;43.216;27.904;2022-12-18T10:52:21;9.56;75.04
67799;SHT30;54596;43.216;27.904;2022-12-18T10:54:51;9.70;75.19
67799;SHT30;54596;43.216;27.904;2022-12-18T10:57:30;9.78;74.84
67799;SHT30;54596;43.216;27.904;2022-12-18T10:59:58;9.83;74.37
67799;SHT30;54596;43.216;27.904;2022-12-18T11:02:36;9.90;74.32
67799;SHT30;54596;43.216;27.904;2022-12-18T11:05:02;9.89;73.98
67799;SHT30;54596;43.216;27.904;2022-12-18T11:07:47;9.85;74.44
67799;SHT30;54596;43.216;27.904;2022-12-18T11:10:18;9.85;74.40
67799;SHT30;54596;43.216;27.904;2022-12-18T11:12:44;9.86;74.33
67799;SHT30;54596;43.216;27.904;2022-12-18T11:15:39;9.80;74.58
67799;SHT30;54596;43.216;27.904;2022-12-18T11:20:44;9.85;74.40
67799;SHT30;54596;43.216;27.904;2022-12-18T11:23:15;9.73;74.71
67799;SHT30;54596;43.216;27.904;2022-12-18T11:25:54;9.72;74.88
67799;SHT30;54596;43.216;27.904;2022-12-18T11:28:46;9.69;75.12
67799;SHT30;54596;43.216;27.904;2022-12-18T11:31:24;9.61;75.26
67799;SHT30;54596;43.216;27.904;2022-12-18T11:34:00;9.56;75.72
67799;SHT30;54596;43.216;27.904;2022-12-18T11:36:31;9.58;75.93
67799;SHT30;54596;43.216;27.904;2022-12-18T11:38:59;9.58;75.59
67799;SHT30;54596;43.216;27.904;2022-12-18T11:41:32;9.53;75.95
67799;SHT30;54596;43.216;27.904;2022-12-18T11:44:26;9.48;76.13
67799;SHT30;54596;43.216;27.904;2022-12-18T11:46:59;9.56;76.11
67799;SHT30;54596;43.216;27.904;2022-12-18T11:52:19;9.55;76.19
67799;SHT30;54596;43.216;27.904;2022-12-18T11:54:46;9.45;76.09
67799;SHT30;54596;43.216;27.904;2022-12-18T11:57:18;9.51;76.16
67799;SHT30;54596;43.216;27.904;2022-12-18T12:07:57;9.34;76.43
67799;SHT30;54596;43.216;27.904;2022-12-18T12:21:18;9.45;75.61
67799;SHT30;54596;43.216;27.904;2022-12-18T12:24:10;9.45;75.91
67799;SHT30;54596;43.216;27.904;2022-12-18T12:37:46;9.25;76.69
67799;SHT30;54596;43.216;27.904;2022-12-18T12:40:17;9.24;76.42
67799;SHT30;54596;43.216;27.904;2022-12-18T12:42:49;9.17;76.55
67799;SHT30;54596;43.216;27.904;2022-12-18T12:48:18;9.28;76.59
67799;SHT30;54596;43.216;27.904;2022-12-18T12:50:44;9.17;76.46
67799;SHT30;54596;43.216;27.904;2022-12-18T12:53:21;9.16;76.01
67799;SHT30;54596;43.216;27.904;2022-12-18T12:55:49;8.97;76.07
67799;SHT30;54596;43.216;27.904;2022-12-18T12:58:29;9.03;75.84
67799;SHT30;54596;43.216;27.904;2022-12-18T13:03:56;8.84;74.62
67799;SHT30;54596;43.216;27.904;2022-12-18T13:07:05;8.66;73.12
67799;SHT30;54596;43.216;27.904;2022-12-18T13:09:33;8.73;73.41
67799;SHT30;54596;43.216;27.904;2022-12-18T13:12:11;8.59;73.27
67799;SHT30;54596;43.216;27.904;2022-12-18T13:15:12;8.49;73.99
67799;SHT30;54596;43.216;27.904;2022-12-18T13:17:38;8.48;73.49
67799;SHT30;54596;43.216;27.904;2022-12-18T13:20:14;8.41;73.38
67799;SHT30;54596;43.216;27.904;2022-12-18T13:22:48;8.34;72.07
67799;SHT30;54596;43.216;27.904;2022-12-18T13:28:05;8.33;70.67
67799;SHT30;54596;43.216;27.904;2022-12-18T13:41:00;8.10;70.20
67799;SHT30;54596;43.216;27.904;2022-12-18T13:43:39;7.93;70.16
67799;SHT30;54596;43.216;27.904;2022-12-18T13:46:29;7.99;70.95
67799;SHT30;54596;43.216;27.904;2022-12-18T13:49:03;8.04;70.41
67799;SHT30;54596;43.216;27.904;2022-12-18T13:51:32;8.03;70.13
67799;SHT30;54596;43.216;27.904;2022-12-18T13:56:44;8.11;69.84
67799;SHT30;54596;43.216;27.904;2022-12-18T13:59:20;8.04;69.98
67799;SHT30;54596;43.216;27.904;2022-12-18T14:02:16;8.09;70.42
67799;SHT30;54596;43.216;27.904;2022-12-18T14:04:45;8.26;70.71
67799;SHT30;54596;43.216;27.904;2022-12-18T14:07:25;8.30;70.70
67799;SHT30;54596;43.216;27.904;2022-12-18T14:09:53;8.36;70.07
67799;SHT30;54596;43.216;27.904;2022-12-18T14:15:34;8.19;70.54
67799;SHT30;54596;43.216;27.904;2022-12-18T14:20:50;8.19;70.36
67799;SHT30;54596;43.216;27.904;2022-12-18T14:23:34;8.26;70.40
67799;SHT30;54596;43.216;27.904;2022-12-18T14:26:03;8.27;70.26
67799;SHT30;54596;43.216;27.904;2022-12-18T14:28:44;8.27;70.50
67799;SHT30;54596;43.216;27.904;2022-12-18T14:31:24;8.26;70.63
67799;SHT30;54596;43.216;27.904;2022-12-18T14:33:50;8.26;70.91
67799;SHT30;54596;43.216;27.904;2022-12-18T14:36:19;8.23;71.34
67799;SHT30;54596;43.216;27.904;2022-12-18T14:38:49;8.28;71.19
67799;SHT30;54596;43.216;27.904;2022-12-18T14:41:16;8.23;71.60
67799;SHT30;54596;43.216;27.904;2022-12-18T14:43:44;8.28;71.77
67799;SHT30;54596;43.216;27.904;2022-12-18T14:49:02;8.27;72.31
67799;SHT30;54596;43.216;27.904;2022-12-18T14:51:30;8.21;72.30
67799;SHT30;54596;43.216;27.904;2022-12-18T14:53:59;8.16;72.60
67799;SHT30;54596;43.216;27.904;2022-12-18T14:56:30;8.11;72.57
67799;SHT30;54596;43.216;27.904;2022-12-18T14:58:58;8.16;72.58
67799;SHT30;54596;43.216;27.904;2022-12-18T15:01:36;8.10;71.24
67799;SHT30;54596;43.216;27.904;2022-12-18T15:04:04;8.10;70.67
67799;SHT30;54596;43.216;27.904;2022-12-18T15:06:34;8.09;70.45
67799;SHT30;54596;43.216;27.904;2022-12-18T15:09:04;8.09;70.38
67799;SHT30;54596;43.216;27.904;2022-12-18T15:11:34;7.92;69.72
67799;SHT30;54596;43.216;27.904;2022-12-18T15:16:55;7.68;70.25
67799;SHT30;54596;43.216;27.904;2022-12-18T15:19:25;7.69;70.22
67799;SHT30;54596;43.216;27.904;2022-12-18T15:21:52;7.62;70.72
67799;SHT30;54596;43.216;27.904;2022-12-18T15:24:26;7.66;70.88
67799;SHT30;54596;43.216;27.904;2022-12-18T15:26:52;7.72;70.92
67799;SHT30;54596;43.216;27.904;2022-12-18T15:29:20;7.65;70.96
67799;SHT30;54596;43.216;27.904;2022-12-18T15:32:02;7.76;71.08
67799;SHT30;54596;43.216;27.904;2022-12-18T15:34:28;7.75;71.30
67799;SHT30;54596;43.216;27.904;2022-12-18T15:36:54;7.68;71.65
67799;SHT30;54596;43.216;27.904;2022-12-18T15:39:20;7.76;71.93
67799;SHT30;54596;43.216;27.904;2022-12-18T15:41:45;7.79;71.77
67799;SHT30;54596;43.216;27.904;2022-12-18T15:44:30;7.79;71.90
67799;SHT30;54596;43.216;27.904;2022-12-18T15:46:56;7.89;71.95
67799;SHT30;54596;43.216;27.904;2022-12-18T15:49:22;7.96;71.84
67799;SHT30;54596;43.216;27.904;2022-12-18T15:51:56;7.89;71.49
67799;SHT30;54596;43.216;27.904;2022-12-18T15:54:23;7.79;71.68
67799;SHT30;54596;43.216;27.904;2022-12-18T15:57:12;7.79;72.12
67799;SHT30;54596;43.216;27.904;2022-12-18T15:59:51;7.81;72.08
67799;SHT30;54596;43.216;27.904;2022-12-18T16:02:18;7.79;71.61
67799;SHT30;54596;43.216;27.904;2022-12-18T16:04:44;7.82;71.91
67799;SHT30;54596;43.216;27.904;2022-12-18T16:07:11;7.79;71.94
67799;SHT30;54596;43.216;27.904;2022-12-18T16:09:37;7.76;71.95
67799;SHT30;54596;43.216;27.904;2022-12-18T16:12:05;7.83;72.13
67799;SHT30;54596;43.216;27.904;2022-12-18T16:14:32;7.83;72.30
67799;SHT30;54596;43.216;27.904;2022-12-18T16:17:00;7.74;72.69
67799;SHT30;54596;43.216;27.904;2022-12-18T16:19:27;7.74;72.64
67799;SHT30;54596;43.216;27.904;2022-12-18T16:21:55;7.78;72.96
67799;SHT30;54596;43.216;27.904;2022-12-18T16:24:24;7.82;72.85
67799;SHT30;54596;43.216;27.904;2022-12-18T16:26:51;7.75;72.52
67799;SHT30;54596;43.216;27.904;2022-12-18T16:29:18;7.71;72.45
67799;SHT30;54596;43.216;27.904;2022-12-18T16:31:44;7.68;72.50
67799;SHT30;54596;43.216;27.904;2022-12-18T16:34:17;7.74;72.37
67799;SHT30;54596;43.216;27.904;2022-12-18T16:36:46;7.68;72.44
67799;SHT30;54596;43.216;27.904;2022-12-18T16:39:12;7.71;72.70
67799;SHT30;54596;43.216;27.904;2022-12-18T16:41:37;7.65;72.19
67799;SHT30;54596;43.216;27.904;2022-12-18T16:44:03;7.61;72.28
67799;SHT30;54596;43.216;27.904;2022-12-18T16:46:29;7.64;72.45
67799;SHT30;54596;43.216;27.904;2022-12-18T16:48:57;7.66;72.42
67799;SHT30;54596;43.216;27.904;2022-12-18T16:51:22;7.65;72.31
67799;SHT30;54596;43.216;27.904;2022-12-18T16:53:48;7.66;72.31
67799;SHT30;54596;43.216;27.904;2022-12-18T16:56:13;7.69;72.71
67799;SHT30;54596;43.216;27.904;2022-12-18T16:58:39;7.43;70.39
67799;SHT30;54596;43.216;27.904;2022-12-18T17:01:09;7.33;70.68
67799;SHT30;54596;43.216;27.904;2022-12-18T17:03:34;7.26;70.17
67799;SHT30;54596;43.216;27.904;2022-12-18T17:06:04;7.10;70.57
67799;SHT30;54596;43.216;27.904;2022-12-18T17:08:30;7.12;70.70
67799;SHT30;54596;43.216;27.904;2022-12-18T17:11:28;7.02;70.78
67799;SHT30;54596;43.216;27.904;2022-12-18T17:13:54;7.02;70.53
67799;SHT30;54596;43.216;27.904;2022-12-18T17:16:20;6.96;70.60
67799;SHT30;54596;43.216;27.904;2022-12-18T17:18:46;6.97;70.77
67799;SHT30;54596;43.216;27.904;2022-12-18T17:21:12;6.84;70.92
67799;SHT30;54596;43.216;27.904;2022-12-18T17:23:42;6.82;70.37
67799;SHT30;54596;43.216;27.904;2022-12-18T17:26:09;6.89;70.42